createdAt,value
2018-07-03T00:01:40.916Z,40.10
2018-07-03T00:04:08.261Z,39.80
2018-07-03T00:06:37.595Z,39.50
2018-07-03T00:09:08.021Z,39.90
2018-07-03T00:11:35.386Z,39.70
2018-07-03T00:14:04.575Z,39.40
2018-07-03T00:16:37.714Z,39.00
2018-07-03T00:19:04.990Z,39.00
2018-07-03T00:21:32.298Z,38.90
2018-07-03T00:24:00.158Z,39.00
2018-07-03T00:26:28.368Z,39.20
2018-07-03T00:28:57.014Z,39.10
2018-07-03T00:31:24.538Z,39.20
2018-07-03T00:33:51.986Z,38.90
2018-07-03T00:36:19.160Z,39.20
2018-07-03T00:38:47.047Z,38.90
2018-07-03T00:41:14.245Z,39.40
2018-07-03T00:43:42.485Z,39.40
2018-07-03T00:46:10.221Z,39.20
2018-07-03T00:48:37.472Z,39.10
2018-07-03T00:51:04.800Z,39.00
2018-07-03T00:53:32.097Z,39.40
2018-07-03T00:55:59.617Z,39.90
2018-07-03T00:58:27.388Z,40.20
2018-07-03T01:00:54.677Z,40.40
2018-07-03T01:03:22.135Z,40.70
2018-07-03T01:05:49.644Z,40.80
2018-07-03T01:08:17.051Z,41.20
2018-07-03T01:10:44.609Z,41.20
2018-07-03T01:13:11.971Z,41.60
2018-07-03T01:15:39.296Z,41.10
2018-07-03T01:18:06.707Z,40.70
2018-07-03T01:20:35.239Z,40.70
2018-07-03T01:23:02.742Z,41.00
2018-07-03T01:25:33.466Z,41.30
2018-07-03T01:28:01.524Z,41.50
2018-07-03T01:30:28.764Z,41.30
2018-07-03T01:32:56.061Z,41.10
2018-07-03T01:35:23.354Z,41.00
2018-07-03T01:37:51.295Z,41.20
2018-07-03T01:40:18.820Z,41.50
2018-07-03T01:42:48.086Z,41.70
2018-07-03T01:45:15.536Z,41.60
2018-07-03T01:47:43.240Z,41.40
2018-07-03T01:50:10.623Z,41.20
2018-07-03T01:52:37.901Z,41.10
2018-07-03T01:55:05.377Z,41.50
2018-07-03T01:57:33.048Z,41.80
2018-07-03T02:00:00.427Z,41.40
2018-07-03T02:02:27.827Z,42.10
2018-07-03T02:04:55.432Z,42.10
2018-07-03T02:07:22.708Z,41.90
2018-07-03T02:09:50.340Z,42.60
2018-07-03T02:12:18.121Z,42.30
2018-07-03T02:14:46.282Z,42.60
2018-07-03T02:17:13.553Z,42.40
2018-07-03T02:19:40.877Z,42.60
2018-07-03T02:22:08.857Z,42.70
2018-07-03T02:24:38.047Z,42.60
2018-07-03T02:27:05.417Z,43.10
2018-07-03T02:29:33.374Z,43.20
2018-07-03T02:32:00.844Z,43.30
2018-07-03T02:34:28.281Z,43.40
2018-07-03T02:36:55.682Z,43.30
2018-07-03T02:39:24.950Z,43.60
2018-07-03T02:41:52.769Z,43.70
2018-07-03T02:44:20.230Z,43.80
2018-07-03T02:46:47.539Z,43.50
2018-07-03T02:49:14.879Z,43.80
2018-07-03T02:51:42.226Z,44.20
2018-07-03T02:54:09.531Z,44.20
2018-07-03T02:56:37.021Z,43.60
2018-07-03T02:59:04.799Z,43.80
2018-07-03T03:01:32.131Z,43.80
2018-07-03T03:04:00.148Z,43.90
2018-07-03T03:06:27.578Z,44.30
2018-07-03T03:08:56.540Z,44.10
2018-07-03T03:11:23.949Z,44.20
2018-07-03T03:13:54.015Z,44.40
2018-07-03T03:16:21.681Z,44.40
2018-07-03T03:18:49.379Z,44.50
2018-07-03T03:21:16.726Z,44.20
2018-07-03T03:23:44.134Z,43.90
2018-07-03T03:26:11.704Z,44.70
2018-07-03T03:28:39.198Z,44.50
2018-07-03T03:31:06.533Z,44.40
2018-07-03T03:33:34.612Z,44.50
2018-07-03T03:36:02.306Z,44.60
2018-07-03T03:38:29.738Z,45.00
2018-07-03T03:40:59.167Z,45.20
2018-07-03T03:43:28.860Z,44.90
2018-07-03T03:45:56.737Z,44.90
2018-07-03T03:48:24.176Z,44.70
2018-07-03T04:04:58.186Z,44.70
2018-07-03T04:07:25.621Z,45.20
2018-07-03T04:09:52.993Z,45.40
2018-07-03T04:12:20.647Z,45.50
2018-07-03T04:14:48.038Z,45.90
2018-07-03T04:17:16.189Z,46.10
2018-07-03T04:19:44.187Z,45.50
2018-07-03T04:22:12.134Z,45.70
2018-07-03T04:24:39.573Z,46.00
2018-07-03T04:27:07.041Z,45.70
2018-07-03T04:29:34.886Z,45.90
2018-07-03T04:32:02.391Z,45.70
2018-07-03T04:34:30.517Z,45.50
2018-07-03T04:36:58.530Z,45.50
2018-07-03T04:39:25.988Z,46.00
2018-07-03T04:41:53.703Z,45.50
2018-07-03T04:44:22.131Z,45.90
2018-07-03T04:46:49.814Z,46.40
2018-07-03T04:49:17.874Z,47.10
2018-07-03T04:51:46.317Z,46.80
2018-07-03T04:54:13.711Z,47.40
2018-07-03T04:56:43.728Z,47.50
2018-07-03T04:59:15.058Z,47.50
2018-07-03T05:01:44.351Z,47.10
2018-07-03T05:04:11.698Z,47.50
2018-07-03T05:06:39.053Z,47.90
2018-07-03T05:09:07.969Z,48.30
2018-07-03T05:11:35.334Z,48.20
2018-07-03T05:14:04.717Z,47.90
2018-07-03T05:16:32.065Z,48.00
2018-07-03T05:18:59.538Z,47.40
2018-07-03T05:21:27.341Z,47.20
2018-07-03T05:23:54.781Z,47.10
2018-07-03T05:26:22.619Z,47.30
2018-07-03T05:28:50.485Z,47.00
2018-07-03T05:31:17.990Z,46.80
2018-07-03T05:33:46.028Z,46.30
2018-07-03T05:36:14.497Z,46.30
2018-07-03T05:38:41.929Z,46.60
2018-07-03T05:41:10.124Z,46.20
2018-07-03T05:43:37.515Z,45.20
2018-07-03T05:46:05.023Z,44.80
2018-07-03T05:48:32.777Z,44.80
2018-07-03T06:07:45.568Z,45.70
2018-07-03T06:10:13.140Z,45.30
2018-07-03T06:12:40.265Z,45.90
2018-07-03T06:15:07.470Z,45.80
2018-07-03T06:17:34.691Z,45.00
2018-07-03T06:20:02.362Z,45.20
2018-07-03T06:22:29.739Z,45.50
2018-07-03T06:24:57.148Z,44.50
2018-07-03T06:27:24.458Z,45.00
2018-07-03T06:29:52.709Z,44.40
2018-07-03T06:32:19.797Z,45.00
2018-07-03T06:34:47.139Z,44.90
2018-07-03T06:37:14.979Z,44.20
2018-07-03T06:39:42.247Z,44.00
2018-07-03T06:44:36.860Z,44.40
2018-07-03T06:47:04.552Z,44.50
2018-07-03T06:49:33.199Z,44.40
2018-07-03T06:52:01.702Z,44.30
2018-07-03T06:54:29.149Z,44.40
2018-07-03T06:56:56.637Z,44.60
2018-07-03T06:59:24.019Z,44.80
2018-07-03T07:01:51.905Z,44.80
2018-07-03T07:04:19.154Z,44.20
2018-07-03T07:06:46.349Z,44.60
2018-07-03T07:09:13.819Z,45.00
2018-07-03T07:11:41.044Z,45.10
2018-07-03T07:14:08.233Z,44.70
2018-07-03T07:16:35.456Z,44.40
2018-07-03T07:19:03.836Z,44.70
2018-07-03T07:21:31.104Z,44.50
2018-07-03T07:23:58.843Z,44.30
2018-07-03T07:26:26.635Z,44.60
2018-07-03T07:28:58.427Z,44.30
2018-07-03T07:31:27.860Z,43.90
2018-07-03T07:33:55.014Z,44.10
2018-07-03T07:36:22.267Z,44.00
2018-07-03T07:38:50.167Z,44.10
2018-07-03T07:41:18.153Z,44.00
2018-07-03T07:43:45.580Z,44.20
2018-07-03T07:46:12.866Z,44.30
2018-07-03T07:48:40.662Z,43.70
2018-07-03T07:51:08.160Z,44.00
2018-07-03T07:53:35.615Z,44.30
2018-07-03T07:56:03.111Z,43.90
2018-07-03T07:58:30.423Z,43.40
2018-07-03T08:00:58.102Z,42.90
2018-07-03T08:03:26.457Z,42.80
2018-07-03T08:05:54.173Z,41.80
2018-07-03T08:08:21.419Z,42.20
2018-07-03T08:10:49.077Z,42.60
2018-07-03T08:30:14.351Z,41.90
2018-07-03T08:32:42.506Z,41.90
2018-07-03T08:35:10.781Z,41.70
2018-07-03T08:43:14.507Z,41.40
2018-07-03T08:45:41.885Z,41.40
2018-07-03T08:48:09.186Z,40.40
2018-07-03T08:50:37.164Z,40.80
2018-07-03T08:53:04.376Z,40.90
2018-07-03T08:55:31.533Z,40.90
2018-07-03T08:57:59.764Z,40.20
2018-07-03T09:00:28.162Z,40.40
2018-07-03T09:02:55.711Z,39.90
2018-07-03T09:05:23.705Z,39.70
2018-07-03T09:07:51.640Z,39.80
2018-07-03T09:10:19.761Z,39.40
2018-07-03T09:12:47.761Z,39.10
2018-07-03T09:15:15.404Z,39.10
2018-07-03T09:17:43.341Z,39.20
2018-07-03T09:20:10.606Z,39.20
2018-07-03T09:22:38.165Z,38.30
2018-07-03T09:25:05.575Z,38.00
2018-07-03T09:27:33.406Z,37.70
2018-07-03T09:30:01.287Z,37.90
2018-07-03T09:32:28.729Z,37.60
2018-07-03T09:34:56.027Z,35.90
2018-07-03T09:37:23.733Z,34.70
2018-07-03T09:39:51.557Z,33.30
2018-07-03T09:42:18.938Z,33.50
2018-07-03T09:44:46.228Z,33.70
2018-07-03T09:47:13.448Z,33.80
2018-07-03T09:49:40.667Z,33.90
2018-07-03T09:52:07.804Z,34.40
2018-07-03T09:54:35.025Z,34.90
2018-07-03T09:57:02.234Z,35.20
2018-07-03T09:59:29.676Z,35.10
2018-07-03T10:01:56.949Z,34.60
2018-07-03T10:04:24.224Z,34.70
2018-07-03T10:06:51.718Z,34.50
2018-07-03T10:09:18.818Z,34.50
2018-07-03T10:11:45.930Z,34.20
2018-07-03T10:14:13.160Z,34.50
2018-07-03T10:16:40.364Z,34.50
2018-07-03T10:19:07.825Z,33.20
2018-07-03T10:21:34.956Z,32.50
2018-07-03T10:24:02.209Z,32.50
2018-07-03T10:26:29.785Z,32.60
2018-07-03T10:28:57.336Z,33.30
2018-07-03T10:31:24.633Z,33.20
2018-07-03T10:48:02.976Z,32.60
2018-07-03T10:50:30.603Z,32.80
2018-07-03T10:52:58.845Z,32.80
2018-07-03T10:55:26.145Z,32.10
2018-07-03T10:57:54.085Z,31.50
2018-07-03T11:00:21.526Z,32.40
2018-07-03T11:02:48.726Z,32.60
2018-07-03T11:05:15.792Z,32.50
2018-07-03T11:07:42.996Z,32.10
2018-07-03T11:10:10.352Z,31.70
2018-07-03T11:12:37.435Z,31.70
2018-07-03T11:15:04.602Z,32.30
2018-07-03T11:17:31.856Z,31.40
2018-07-03T11:19:59.141Z,30.70
2018-07-03T11:22:26.061Z,30.80
2018-07-03T11:24:53.089Z,30.10
2018-07-03T11:27:20.332Z,29.80
2018-07-03T11:29:47.496Z,29.40
2018-07-03T11:32:14.598Z,29.70
2018-07-03T11:34:41.727Z,30.00
2018-07-03T11:37:09.082Z,29.70
2018-07-03T11:39:36.383Z,30.00
2018-07-03T11:42:04.446Z,29.10
2018-07-03T11:44:32.011Z,29.30
2018-07-03T11:46:59.907Z,28.30
2018-07-03T11:49:28.305Z,28.40
2018-07-03T11:51:55.524Z,29.30
2018-07-03T11:54:23.165Z,29.10
2018-07-03T11:56:50.306Z,29.00
2018-07-03T11:59:17.757Z,29.00
2018-07-03T12:01:45.076Z,28.90
2018-07-03T12:04:12.335Z,28.40
2018-07-03T12:06:39.421Z,28.90
2018-07-03T12:09:08.030Z,29.00
2018-07-03T12:11:35.060Z,28.60
2018-07-03T12:14:07.052Z,28.00
2018-07-03T12:16:34.500Z,28.70
2018-07-03T12:19:01.645Z,29.10
2018-07-03T12:21:29.562Z,27.90
2018-07-03T12:23:58.179Z,27.70
2018-07-03T12:26:25.420Z,27.40
2018-07-03T12:28:52.814Z,27.70
2018-07-03T12:31:20.497Z,27.40
2018-07-03T12:33:47.936Z,26.10
2018-07-03T12:36:15.084Z,26.30
2018-07-03T12:38:42.148Z,26.70
2018-07-03T12:41:09.792Z,26.60
2018-07-03T12:43:36.988Z,26.90
2018-07-03T12:46:04.672Z,26.60
2018-07-03T12:48:31.989Z,26.30
2018-07-03T12:50:59.348Z,26.60
2018-07-03T12:53:26.516Z,26.90
2018-07-03T12:55:53.637Z,27.10
2018-07-03T12:58:20.801Z,26.70
2018-07-03T13:00:48.015Z,26.70
2018-07-03T13:03:15.157Z,26.70
2018-07-03T13:05:43.298Z,26.10
2018-07-03T13:08:10.480Z,26.40
2018-07-03T13:10:37.687Z,26.30
2018-07-03T13:13:05.594Z,25.70
2018-07-03T13:15:32.859Z,25.90
2018-07-03T13:18:04.600Z,26.20
2018-07-03T13:20:33.067Z,26.80
2018-07-03T13:23:00.201Z,25.90
2018-07-03T13:25:27.376Z,26.20
2018-07-03T13:27:54.546Z,26.30
2018-07-03T13:30:22.626Z,26.50
2018-07-03T13:32:49.749Z,26.30
2018-07-03T13:35:16.911Z,26.70
2018-07-03T13:37:44.070Z,26.60
2018-07-03T13:40:11.374Z,26.40
2018-07-03T13:42:38.575Z,26.60
2018-07-03T13:45:05.709Z,26.30
2018-07-03T13:47:33.480Z,25.70
2018-07-03T13:50:00.678Z,26.30
2018-07-03T13:52:28.010Z,26.60
2018-07-03T13:54:55.144Z,26.80
2018-07-03T14:11:33.054Z,25.70
2018-07-03T14:14:00.225Z,25.50
2018-07-03T14:16:28.400Z,25.40
2018-07-03T14:18:55.556Z,24.80
2018-07-03T14:21:22.716Z,25.20
2018-07-03T14:23:49.869Z,25.10
2018-07-03T14:26:17.927Z,24.90
2018-07-03T14:28:44.971Z,25.20
2018-07-03T14:31:12.216Z,24.90
2018-07-03T14:33:40.932Z,25.30
2018-07-03T14:36:08.656Z,25.00
2018-07-03T14:38:36.036Z,25.10
2018-07-03T14:41:03.129Z,24.90
2018-07-03T14:43:30.855Z,24.90
2018-07-03T14:45:57.975Z,24.80
2018-07-03T14:48:25.210Z,25.00
2018-07-03T14:50:52.453Z,25.10
2018-07-03T14:53:19.615Z,23.30
2018-07-03T14:55:47.156Z,23.50
2018-07-03T14:58:14.680Z,23.90
2018-07-03T15:00:42.806Z,23.70
2018-07-03T15:03:09.932Z,24.20
2018-07-03T15:05:37.964Z,23.90
2018-07-03T15:08:06.095Z,24.20
2018-07-03T15:10:33.688Z,23.80
2018-07-03T15:13:02.601Z,23.80
2018-07-03T15:15:30.563Z,24.20
2018-07-03T15:17:58.050Z,23.60
2018-07-03T15:20:26.088Z,23.50
2018-07-03T15:22:53.520Z,23.10
2018-07-03T15:25:21.194Z,23.40
2018-07-03T15:27:48.697Z,23.70
2018-07-03T15:30:18.021Z,23.20
2018-07-03T15:32:45.268Z,24.10
2018-07-03T15:35:12.918Z,24.10
2018-07-03T15:37:40.067Z,23.80
2018-07-03T15:40:07.171Z,23.50
2018-07-03T15:42:35.196Z,23.40
2018-07-03T15:45:06.594Z,23.40
2018-07-03T15:47:34.761Z,23.40
2018-07-03T15:50:02.692Z,23.20
2018-07-03T15:52:30.823Z,23.30
2018-07-03T15:54:58.160Z,23.20
2018-07-03T15:57:27.052Z,23.40
2018-07-03T15:59:54.686Z,23.40
2018-07-03T16:02:22.415Z,23.10
2018-07-03T16:05:01.634Z,23.50
2018-07-03T16:07:41.021Z,23.40
2018-07-03T16:10:08.598Z,22.80
2018-07-03T16:12:37.904Z,23.40
2018-07-03T16:15:05.830Z,23.40
2018-07-03T16:17:33.920Z,22.90
2018-07-03T16:20:06.774Z,23.20
2018-07-03T16:22:34.352Z,23.80
2018-07-03T16:25:01.569Z,23.90
2018-07-03T16:27:28.649Z,23.80
2018-07-03T16:29:56.508Z,23.70
2018-07-03T16:32:24.524Z,23.70
2018-07-03T16:34:52.175Z,23.80
2018-07-03T16:54:05.681Z,24.50
2018-07-03T16:56:33.856Z,25.10
2018-07-03T16:59:02.803Z,25.00
2018-07-03T17:01:30.729Z,25.00
2018-07-03T17:03:58.431Z,25.00
2018-07-03T17:06:25.885Z,24.90
2018-07-03T17:08:53.917Z,25.00
2018-07-03T17:11:21.510Z,25.20
2018-07-03T17:13:49.465Z,25.40
2018-07-03T17:16:16.737Z,25.50
2018-07-03T17:18:49.540Z,25.80
2018-07-03T17:21:17.361Z,25.80
2018-07-03T17:23:44.456Z,26.20
2018-07-03T17:26:11.754Z,26.20
2018-07-03T17:28:39.704Z,26.10
2018-07-03T17:31:07.411Z,26.60
2018-07-03T17:33:35.167Z,26.50
2018-07-03T17:36:03.208Z,26.50
2018-07-03T17:38:31.319Z,26.40
2018-07-03T17:41:11.096Z,26.90
2018-07-03T17:44:22.249Z,26.70
2018-07-03T17:46:50.696Z,26.30
2018-07-03T17:49:18.453Z,25.90
2018-07-03T17:51:45.720Z,25.80
2018-07-03T17:54:13.883Z,25.60
2018-07-03T17:56:41.887Z,25.90
2018-07-03T17:59:09.674Z,25.90
2018-07-03T18:01:38.136Z,25.80
2018-07-03T18:04:05.488Z,25.80
2018-07-03T18:06:33.778Z,26.10
2018-07-03T18:09:02.682Z,26.00
2018-07-03T18:11:30.879Z,26.20
2018-07-03T18:13:58.728Z,26.20
2018-07-03T18:16:26.146Z,26.30
2018-07-03T18:18:59.465Z,26.40
2018-07-03T18:21:27.183Z,26.30
2018-07-03T18:23:54.690Z,26.40
2018-07-03T18:26:22.227Z,26.40
2018-07-03T18:28:49.570Z,26.40
2018-07-03T18:31:17.216Z,26.40
2018-07-03T18:33:44.615Z,26.50
2018-07-03T18:36:12.887Z,26.30
2018-07-03T18:38:40.034Z,26.40
2018-07-03T18:41:08.076Z,26.30
2018-07-03T18:43:36.088Z,26.50
2018-07-03T19:00:08.002Z,26.30
2018-07-03T19:02:35.224Z,26.30
2018-07-03T19:05:03.560Z,26.50
2018-07-03T19:07:31.020Z,27.10
2018-07-03T19:09:58.405Z,27.30
2018-07-03T19:12:25.931Z,27.70
2018-07-03T19:14:53.233Z,28.00
2018-07-03T19:17:21.039Z,28.40
2018-07-03T19:19:48.427Z,28.70
2018-07-03T19:22:16.942Z,29.30
2018-07-03T19:24:45.582Z,29.50
2018-07-03T19:27:15.184Z,29.80
2018-07-03T19:29:43.931Z,30.00
2018-07-03T19:32:14.252Z,30.40
2018-07-03T19:34:43.228Z,30.30
2018-07-03T19:37:13.322Z,30.80
2018-07-03T19:39:41.429Z,31.00
2018-07-03T19:42:09.515Z,31.40
2018-07-03T19:44:36.779Z,32.20
2018-07-03T19:47:04.219Z,31.90
2018-07-03T19:49:31.482Z,32.70
2018-07-03T19:51:58.890Z,32.80
2018-07-03T19:54:26.899Z,33.40
2018-07-03T19:56:54.094Z,33.80
2018-07-03T19:59:21.589Z,34.30
2018-07-03T20:01:48.824Z,34.40
2018-07-03T20:04:16.463Z,34.80
2018-07-03T20:06:43.856Z,34.60
2018-07-03T20:09:12.783Z,34.50
2018-07-03T20:11:40.769Z,36.10
2018-07-03T20:14:08.343Z,36.00
2018-07-03T20:16:35.682Z,35.40
2018-07-03T20:19:03.086Z,35.90
2018-07-03T20:21:30.854Z,36.70
2018-07-03T20:24:00.321Z,36.20
2018-07-03T20:26:27.597Z,36.40
2018-07-03T20:28:54.807Z,35.60
2018-07-03T20:31:22.271Z,36.20
2018-07-03T20:33:49.628Z,36.90
2018-07-03T20:36:17.669Z,37.70
2018-07-03T20:38:45.550Z,36.50
2018-07-03T20:41:13.114Z,37.60
2018-07-03T20:43:41.231Z,36.20
2018-07-03T20:46:10.326Z,36.80
2018-07-03T20:48:37.547Z,36.30
2018-07-03T20:51:05.325Z,36.20
2018-07-03T20:53:33.489Z,37.00
2018-07-03T20:56:00.790Z,38.10
2018-07-03T20:58:28.038Z,38.30
2018-07-03T21:00:55.490Z,38.60
2018-07-03T21:03:22.833Z,38.90
2018-07-03T21:05:50.228Z,39.20
2018-07-03T21:08:18.944Z,39.60
2018-07-03T21:10:47.680Z,39.60
2018-07-03T21:13:15.191Z,39.00
2018-07-03T21:32:22.344Z,40.30
2018-07-03T21:34:50.125Z,40.30
2018-07-03T21:37:18.246Z,40.80
2018-07-03T21:39:45.834Z,40.20
2018-07-03T21:42:13.104Z,40.00
2018-07-03T21:44:44.689Z,40.20
2018-07-03T21:47:14.472Z,40.80
2018-07-03T21:49:43.683Z,41.30
2018-07-03T22:02:14.601Z,42.30
2018-07-03T22:04:42.874Z,42.60
2018-07-03T22:07:10.409Z,42.40
2018-07-03T22:09:38.816Z,42.40
2018-07-03T22:12:10.097Z,41.80
2018-07-03T22:14:41.376Z,41.90
2018-07-03T22:17:17.054Z,42.40
2018-07-03T22:36:29.721Z,45.20
2018-07-03T22:38:57.428Z,45.80
2018-07-03T22:41:24.958Z,46.10
2018-07-03T22:43:52.672Z,46.80
2018-07-03T22:46:20.556Z,46.20
2018-07-03T22:48:48.166Z,46.40
2018-07-03T22:51:15.299Z,46.50
2018-07-03T22:53:42.600Z,46.60
2018-07-03T22:56:10.015Z,46.80
2018-07-03T22:58:37.274Z,47.10
2018-07-03T23:01:04.557Z,47.10
2018-07-03T23:03:32.094Z,46.60
2018-07-03T23:06:00.450Z,47.30
2018-07-03T23:08:27.822Z,47.10
2018-07-03T23:10:55.157Z,47.20
2018-07-03T23:13:22.734Z,46.70
2018-07-03T23:15:50.090Z,46.00
2018-07-03T23:18:17.852Z,45.60
2018-07-03T23:20:45.005Z,45.70
2018-07-03T23:23:12.179Z,45.90
2018-07-03T23:25:39.471Z,45.90
2018-07-03T23:28:06.659Z,46.00
2018-07-03T23:30:34.037Z,45.80
2018-07-03T23:33:01.171Z,45.60
2018-07-03T23:35:28.389Z,45.70
2018-07-03T23:37:55.900Z,46.00
2018-07-03T23:40:23.666Z,46.70
2018-07-03T23:42:50.865Z,46.50
2018-07-03T23:45:18.116Z,46.70
2018-07-03T23:47:56.665Z,46.70
2018-07-03T23:50:35.488Z,46.70
2018-07-03T23:53:14.752Z,46.80
2018-07-03T23:55:53.609Z,46.60
2018-07-03T23:58:32.195Z,46.70
